createdAt,value
2022-11-21T00:01:01.738Z,99927.44
2022-11-21T00:03:28.197Z,99937.06
2022-11-21T00:05:54.608Z,99938.69
2022-11-21T00:08:21.770Z,99942.00
2022-11-21T00:10:48.504Z,99952.44
2022-11-21T00:13:20.469Z,99942.00
2022-11-21T00:15:47.479Z,99954.91
2022-11-21T00:18:14.578Z,99952.28
2022-11-21T00:20:42.006Z,99942.75
2022-11-21T00:23:09.060Z,99947.50
2022-11-21T00:25:36.119Z,99950.00
2022-11-21T00:28:03.054Z,99948.22
2022-11-21T00:30:29.947Z,99950.69
2022-11-21T00:32:58.380Z,99948.28
2022-11-21T00:35:24.782Z,99948.94
2022-11-21T00:37:51.189Z,99947.06
2022-11-21T00:40:18.263Z,99945.97
2022-11-21T00:42:44.718Z,99952.25
2022-11-21T00:45:11.283Z,99943.53
2022-11-21T00:47:37.741Z,99948.84
2022-11-21T00:50:04.563Z,99947.44
2022-11-21T00:52:30.983Z,99941.41
2022-11-21T00:54:57.467Z,99944.69
2022-11-21T00:57:23.857Z,99945.47
2022-11-21T00:59:50.278Z,99943.66
2022-11-21T01:02:16.718Z,99940.88
2022-11-21T01:04:43.249Z,99944.56
2022-11-21T01:07:09.712Z,99935.72
2022-11-21T01:09:36.158Z,99935.38
2022-11-21T01:12:02.612Z,99935.38
2022-11-21T01:14:29.387Z,99940.31
2022-11-21T01:16:56.037Z,99935.63
2022-11-21T01:19:22.543Z,99929.50
2022-11-21T01:21:48.973Z,99937.13
2022-11-21T01:24:15.513Z,99936.41
2022-11-21T01:26:42.189Z,99930.53
2022-11-21T01:29:08.826Z,99941.22
2022-11-21T01:31:35.997Z,99921.53
2022-11-21T01:34:02.466Z,99933.22
2022-11-21T01:36:33.079Z,99928.75
2022-11-21T01:39:02.533Z,99922.72
2022-11-21T01:41:33.504Z,99918.66
2022-11-21T01:44:01.451Z,99920.63
2022-11-21T01:46:28.742Z,99922.13
2022-11-21T01:49:02.213Z,99919.63
2022-11-21T01:51:33.842Z,99907.09
2022-11-21T01:54:09.250Z,99913.25
2022-11-21T01:57:02.383Z,99908.94
2022-11-21T01:59:56.292Z,99908.09
2022-11-21T02:02:27.706Z,99904.84
2022-11-21T02:04:55.779Z,99907.41
2022-11-21T02:07:24.596Z,99908.44
2022-11-21T02:09:58.142Z,99905.19
2022-11-21T02:12:31.571Z,99907.47
2022-11-21T02:14:58.910Z,99903.69
2022-11-21T02:17:26.974Z,99910.09
2022-11-21T02:19:59.218Z,99911.56
2022-11-21T02:22:41.002Z,99909.91
2022-11-21T02:25:10.093Z,99912.13
2022-11-21T02:27:36.596Z,99902.72
2022-11-21T02:30:06.427Z,99903.53
2022-11-21T02:32:35.892Z,99913.16
2022-11-21T02:35:02.830Z,99903.63
2022-11-21T02:37:30.940Z,99925.00
2022-11-21T02:40:01.545Z,99923.88
2022-11-21T02:42:48.896Z,99913.41
2022-11-21T02:45:30.322Z,99916.84
2022-11-21T02:48:00.843Z,99908.78
2022-11-21T02:50:32.668Z,99910.28
2022-11-21T02:52:59.154Z,99908.84
2022-11-21T02:55:26.293Z,99902.75
2022-11-21T02:57:53.690Z,99889.91
2022-11-21T03:00:20.717Z,99893.19
2022-11-21T03:02:47.390Z,99882.50
2022-11-21T03:05:17.042Z,99881.00
2022-11-21T03:07:43.986Z,99889.66
2022-11-21T03:10:10.705Z,99887.63
2022-11-21T03:12:38.334Z,99883.03
2022-11-21T03:15:06.782Z,99876.59
2022-11-21T03:17:33.498Z,99871.16
2022-11-21T03:19:59.948Z,99874.19
2022-11-21T03:22:26.796Z,99865.91
2022-11-21T03:24:53.213Z,99861.06
2022-11-21T03:27:19.637Z,99858.75
2022-11-21T03:29:46.079Z,99855.81
2022-11-21T03:32:12.476Z,99854.13
2022-11-21T03:34:38.893Z,99852.31
2022-11-21T03:37:05.470Z,99852.41
2022-11-21T03:39:31.883Z,99846.47
2022-11-21T03:41:58.410Z,99841.72
2022-11-21T03:44:24.985Z,99836.56
2022-11-21T03:46:51.532Z,99830.84
2022-11-21T03:49:18.003Z,99828.50
2022-11-21T03:51:45.182Z,99822.72
2022-11-21T03:54:11.769Z,99824.09
2022-11-21T03:56:39.805Z,99820.28
2022-11-21T03:59:06.776Z,99813.63
2022-11-21T04:01:36.639Z,99812.47
2022-11-21T04:04:03.511Z,99810.13
2022-11-21T04:06:31.404Z,99804.66
2022-11-21T04:08:58.082Z,99787.03
2022-11-21T04:11:24.580Z,99786.06
2022-11-21T04:13:51.925Z,99785.81
2022-11-21T04:16:18.503Z,99780.25
2022-11-21T04:18:45.485Z,99787.44
2022-11-21T04:21:11.976Z,99776.84
2022-11-21T04:23:38.430Z,99786.88
2022-11-21T04:26:04.973Z,99782.41
2022-11-21T04:28:31.761Z,99783.25
2022-11-21T04:31:10.445Z,99787.78
2022-11-21T04:33:38.353Z,99786.94
2022-11-21T04:36:05.152Z,99795.47
2022-11-21T04:38:31.553Z,99790.25
2022-11-21T04:40:57.985Z,99784.06
2022-11-21T04:43:24.386Z,99791.44
2022-11-21T04:45:50.790Z,99778.72
2022-11-21T04:48:17.620Z,99789.13
2022-11-21T04:50:45.361Z,99789.56
2022-11-21T04:53:11.807Z,99784.88
2022-11-21T04:55:38.288Z,99784.09
2022-11-21T04:58:04.775Z,99775.25
2022-11-21T05:00:31.456Z,99771.91
2022-11-21T05:03:05.770Z,99780.44
2022-11-21T05:05:33.162Z,99779.63
2022-11-21T05:08:00.267Z,99773.94
2022-11-21T05:10:26.981Z,99779.31
2022-11-21T05:13:19.344Z,99777.63
2022-11-21T05:15:46.289Z,99781.44
2022-11-21T05:18:13.020Z,99774.56
2022-11-21T05:20:39.476Z,99767.41
2022-11-21T05:23:06.261Z,99777.63
2022-11-21T05:25:32.796Z,99775.50
2022-11-21T05:27:59.429Z,99777.56
2022-11-21T05:30:26.116Z,99770.97
2022-11-21T05:32:53.278Z,99755.69
2022-11-21T05:35:19.782Z,99771.28
2022-11-21T05:37:46.488Z,99759.19
2022-11-21T05:40:13.100Z,99753.84
2022-11-21T05:42:59.144Z,99768.16
2022-11-21T05:45:25.734Z,99762.59
2022-11-21T05:47:52.261Z,99760.19
2022-11-21T05:50:19.009Z,99752.97
2022-11-21T05:52:45.655Z,99760.69
2022-11-21T05:55:12.092Z,99755.66
2022-11-21T05:57:38.842Z,99760.78
2022-11-21T06:00:05.909Z,99764.97
2022-11-21T06:02:51.078Z,99760.41
2022-11-21T06:05:17.566Z,99766.91
2022-11-21T06:07:44.024Z,99758.53
2022-11-21T06:10:19.668Z,99759.75
2022-11-21T06:12:46.122Z,99767.69
2022-11-21T06:15:12.713Z,99756.25
2022-11-21T06:17:39.237Z,99760.34
2022-11-21T06:20:06.213Z,99756.72
2022-11-21T06:22:32.666Z,99764.97
2022-11-21T06:24:59.188Z,99760.16
2022-11-21T06:27:25.751Z,99755.88
2022-11-21T06:29:52.327Z,99757.44
2022-11-21T06:32:18.944Z,99758.34
2022-11-21T06:34:45.511Z,99754.56
2022-11-21T06:37:11.915Z,99751.03
2022-11-21T06:39:38.403Z,99751.03
2022-11-21T06:42:05.152Z,99735.03
2022-11-21T06:44:31.770Z,99738.88
2022-11-21T06:46:58.566Z,99729.09
2022-11-21T06:49:25.163Z,99732.31
2022-11-21T06:51:51.628Z,99724.94
2022-11-21T06:54:18.274Z,99725.09
2022-11-21T06:56:44.769Z,99732.00
2022-11-21T06:59:11.424Z,99724.88
2022-11-21T07:01:38.158Z,99725.09
2022-11-21T07:04:04.949Z,99723.19
2022-11-21T07:06:31.575Z,99713.47
2022-11-21T07:09:31.532Z,99716.78
2022-11-21T07:11:44.882Z,99718.00
2022-11-21T07:14:11.413Z,99718.81
2022-11-21T07:16:38.043Z,99714.47
2022-11-21T07:19:04.529Z,99723.69
2022-11-21T07:21:30.999Z,99725.59
2022-11-21T07:23:57.572Z,99716.16
2022-11-21T07:26:23.992Z,99716.78
2022-11-21T07:28:50.504Z,99716.63
2022-11-21T07:31:17.152Z,99708.72
2022-11-21T07:33:43.731Z,99704.06
2022-11-21T07:36:11.577Z,99709.16
2022-11-21T07:38:37.989Z,99701.91
2022-11-21T07:41:04.535Z,99698.53
2022-11-21T07:43:30.944Z,99696.84
2022-11-21T07:45:57.350Z,99692.72
2022-11-21T07:48:23.755Z,99699.63
2022-11-21T07:50:50.258Z,99697.03
2022-11-21T07:53:16.734Z,99699.38
2022-11-21T07:55:43.367Z,99697.34
2022-11-21T07:58:12.359Z,99709.44
2022-11-21T08:00:42.674Z,99701.91
2022-11-21T08:03:09.322Z,99705.94
2022-11-21T08:05:37.595Z,99704.34
2022-11-21T08:08:04.379Z,99702.19
2022-11-21T08:10:30.885Z,99699.78
2022-11-21T08:12:57.356Z,99698.19
2022-11-21T08:15:23.782Z,99693.13
2022-11-21T08:17:50.219Z,99696.78
2022-11-21T08:20:17.171Z,99697.03
2022-11-21T08:22:43.923Z,99702.41
2022-11-21T08:25:10.853Z,99705.88
2022-11-21T08:27:38.780Z,99703.47
2022-11-21T08:30:11.054Z,99703.31
2022-11-21T08:32:37.589Z,99700.06
2022-11-21T08:35:04.507Z,99691.66
2022-11-21T08:37:30.991Z,99699.19
2022-11-21T08:40:00.909Z,99701.56
2022-11-21T08:42:27.676Z,99702.34
2022-11-21T08:44:54.253Z,99704.59
2022-11-21T08:47:20.963Z,99706.50
2022-11-21T08:49:48.186Z,99702.53
2022-11-21T08:52:18.088Z,99693.94
2022-11-21T08:54:45.504Z,99694.66
2022-11-21T08:57:12.083Z,99701.78
2022-11-21T08:59:38.497Z,99702.72
2022-11-21T09:02:05.041Z,99704.75
2022-11-21T09:04:31.758Z,99704.41
2022-11-21T09:06:58.321Z,99702.19
2022-11-21T09:09:25.713Z,99709.88
2022-11-21T09:11:52.493Z,99705.53
2022-11-21T09:14:37.219Z,99713.50
2022-11-21T09:17:22.260Z,99713.56
2022-11-21T09:19:49.030Z,99713.00
2022-11-21T09:22:15.558Z,99712.03
2022-11-21T09:24:42.049Z,99704.72
2022-11-21T09:27:08.582Z,99705.13
2022-11-21T09:29:34.980Z,99699.66
2022-11-21T09:32:01.478Z,99711.53
2022-11-21T09:34:28.210Z,99705.22
2022-11-21T09:36:55.501Z,99707.16
2022-11-21T09:39:22.221Z,99716.44
2022-11-21T09:42:30.922Z,99715.09
2022-11-21T09:45:10.754Z,99715.94
2022-11-21T09:47:41.339Z,99717.25
2022-11-21T09:50:25.156Z,99718.47
2022-11-21T09:52:57.634Z,99717.50
2022-11-21T09:55:36.253Z,99723.69
2022-11-21T09:58:06.862Z,99714.22
2022-11-21T10:00:33.412Z,99711.38
2022-11-21T10:03:01.324Z,99715.44
2022-11-21T10:05:43.121Z,99722.19
2022-11-21T10:08:48.089Z,99718.41
2022-11-21T10:11:34.726Z,99708.94
2022-11-21T10:14:02.013Z,99712.75
2022-11-21T10:16:55.768Z,99708.44
2022-11-21T10:19:50.624Z,99701.22
2022-11-21T10:22:29.240Z,99708.38
2022-11-21T10:25:01.190Z,99700.63
2022-11-21T10:27:38.954Z,99697.94
2022-11-21T10:30:13.324Z,99705.91
2022-11-21T10:32:44.546Z,99697.34
2022-11-21T10:35:29.246Z,99690.53
2022-11-21T10:38:01.077Z,99686.13
2022-11-21T10:40:36.874Z,99696.25
2022-11-21T10:43:35.482Z,99696.13
2022-11-21T10:46:01.990Z,99691.63
2022-11-21T10:48:28.402Z,99685.53
2022-11-21T10:51:39.772Z,99683.94
2022-11-21T10:54:27.814Z,99694.38
2022-11-21T10:57:03.512Z,99692.00
2022-11-21T10:59:31.449Z,99694.63
2022-11-21T11:02:21.785Z,99697.56
2022-11-21T11:04:52.222Z,99685.78
2022-11-21T11:07:23.812Z,99678.81
2022-11-21T11:09:52.352Z,99678.41
2022-11-21T11:12:18.760Z,99684.69
2022-11-21T11:14:51.368Z,99693.59
2022-11-21T11:17:26.707Z,99686.06
2022-11-21T11:20:01.530Z,99677.06
2022-11-21T11:22:29.746Z,99683.66
2022-11-21T11:25:00.457Z,99679.78
2022-11-21T11:27:29.521Z,99682.19
2022-11-21T11:29:56.422Z,99682.25
2022-11-21T11:32:23.762Z,99676.44
2022-11-21T11:35:00.775Z,99673.06
2022-11-21T11:37:41.831Z,99670.44
2022-11-21T11:40:24.118Z,99673.22
2022-11-21T11:43:27.872Z,99672.31
2022-11-21T11:46:34.810Z,99665.47
2022-11-21T11:49:21.166Z,99661.41
2022-11-21T11:51:52.984Z,99664.88
2022-11-21T11:54:29.831Z,99653.63
2022-11-21T11:56:57.675Z,99660.28
2022-11-21T11:59:39.359Z,99655.44
2022-11-21T12:02:26.495Z,99660.34
2022-11-21T12:05:21.129Z,99666.66
2022-11-21T12:08:44.876Z,99657.28
2022-11-21T12:11:33.408Z,99651.63
2022-11-21T12:14:11.440Z,99655.66
2022-11-21T12:16:41.247Z,99657.66
2022-11-21T12:19:13.842Z,99664.00
2022-11-21T12:21:40.507Z,99661.38
2022-11-21T12:24:10.430Z,99663.44
2022-11-21T12:26:42.766Z,99670.00
2022-11-21T12:29:12.245Z,99665.41
2022-11-21T12:31:53.810Z,99665.41
2022-11-21T12:34:41.564Z,99664.13
2022-11-21T12:37:38.803Z,99667.38
2022-11-21T12:40:26.993Z,99657.53
2022-11-21T12:43:30.961Z,99666.41
2022-11-21T12:46:35.123Z,99664.72
2022-11-21T12:49:54.332Z,99659.97
2022-11-21T12:52:52.119Z,99652.84
2022-11-21T12:55:39.014Z,99654.50
2022-11-21T12:58:12.957Z,99654.25
2022-11-21T13:01:18.156Z,99640.69
2022-11-21T13:03:55.048Z,99635.63
2022-11-21T13:06:34.021Z,99632.72
2022-11-21T13:09:04.967Z,99627.34
2022-11-21T13:11:56.526Z,99626.88
2022-11-21T13:14:37.648Z,99622.53
2022-11-21T13:17:09.379Z,99621.00
2022-11-21T13:20:12.865Z,99624.38
2022-11-21T13:22:39.239Z,99617.47
2022-11-21T13:25:14.635Z,99625.81
2022-11-21T13:27:42.563Z,99632.47
2022-11-21T13:30:09.300Z,99626.09
2022-11-21T13:32:44.826Z,99617.94
2022-11-21T13:35:14.985Z,99619.72
2022-11-21T13:38:03.512Z,99614.41
2022-11-21T13:40:29.876Z,99606.00
2022-11-21T13:43:31.236Z,99604.59
2022-11-21T13:45:56.475Z,99604.44
2022-11-21T13:48:30.469Z,99609.38
2022-11-21T13:51:15.556Z,99599.63
2022-11-21T13:54:22.373Z,99593.56
2022-11-21T13:57:25.957Z,99595.66
2022-11-21T14:00:21.526Z,99600.03
2022-11-21T14:03:10.127Z,99599.13
2022-11-21T14:06:19.642Z,99589.41
2022-11-21T14:09:14.398Z,99584.81
2022-11-21T14:12:20.219Z,99585.56
2022-11-21T14:14:53.749Z,99576.41
2022-11-21T14:17:42.138Z,99568.25
2022-11-21T14:20:16.751Z,99569.50
2022-11-21T14:22:57.175Z,99575.75
2022-11-21T14:25:32.868Z,99574.44
2022-11-21T14:27:59.521Z,99575.94
2022-11-21T14:30:38.572Z,99586.06
2022-11-21T14:33:26.564Z,99568.50
2022-11-21T14:36:01.093Z,99570.16
2022-11-21T14:38:29.807Z,99558.41
2022-11-21T14:41:21.910Z,99559.72
2022-11-21T14:43:48.392Z,99565.59
2022-11-21T14:46:16.265Z,99554.22
2022-11-21T14:48:42.797Z,99546.16
2022-11-21T14:51:11.051Z,99551.34
2022-11-21T14:53:40.088Z,99544.56
2022-11-21T14:56:08.393Z,99535.75
2022-11-21T14:58:34.776Z,99535.63
2022-11-21T15:01:02.834Z,99538.16
2022-11-21T15:03:29.441Z,99540.59
2022-11-21T15:06:07.530Z,99539.53
2022-11-21T15:11:24.058Z,99547.81
2022-11-21T15:14:14.919Z,99537.53
2022-11-21T15:16:42.569Z,99522.31
2022-11-21T15:19:10.171Z,99529.41
2022-11-21T15:21:36.702Z,99531.06
2022-11-21T15:24:18.443Z,99524.41
2022-11-21T15:26:47.369Z,99522.75
2022-11-21T15:29:21.380Z,99514.69
2022-11-21T15:32:15.738Z,99515.19
2022-11-21T15:34:42.837Z,99522.91
2022-11-21T15:37:17.058Z,99516.38
2022-11-21T15:39:50.003Z,99522.63
2022-11-21T15:42:29.677Z,99521.22
2022-11-21T15:45:21.240Z,99508.00
2022-11-21T15:47:48.621Z,99511.16
2022-11-21T15:50:16.006Z,99521.72
2022-11-21T15:52:48.270Z,99522.00
2022-11-21T15:55:25.167Z,99526.56
2022-11-21T15:57:51.625Z,99524.97
2022-11-21T16:00:18.655Z,99522.56
2022-11-21T16:02:45.150Z,99519.44
2022-11-21T16:05:13.892Z,99524.28
2022-11-21T16:07:41.263Z,99520.13
2022-11-21T16:10:15.377Z,99520.28
2022-11-21T16:12:47.105Z,99526.25
2022-11-21T16:15:14.209Z,99535.94
2022-11-21T16:17:41.584Z,99528.63
2022-11-21T16:20:08.623Z,99522.81
2022-11-21T16:22:35.039Z,99514.16
2022-11-21T16:25:01.501Z,99512.78
2022-11-21T16:27:28.033Z,99512.72
2022-11-21T16:29:54.484Z,99506.66
2022-11-21T16:32:20.880Z,99511.53
2022-11-21T16:34:47.280Z,99504.16
2022-11-21T16:37:14.385Z,99501.06
2022-11-21T16:39:41.801Z,99496.91
2022-11-21T16:42:10.990Z,99487.22
2022-11-21T16:44:37.395Z,99488.78
2022-11-21T16:47:08.391Z,99484.94
2022-11-21T16:49:36.226Z,99489.81
2022-11-21T16:52:02.678Z,99479.50
2022-11-21T16:54:29.125Z,99482.47
2022-11-21T16:56:55.701Z,99478.41
2022-11-21T16:59:22.090Z,99476.84
2022-11-21T17:01:48.558Z,99478.78
2022-11-21T17:04:29.155Z,99485.13
2022-11-21T17:06:55.710Z,99487.97
2022-11-21T17:09:22.160Z,99483.38
2022-11-21T17:11:48.582Z,99477.44
2022-11-21T17:14:14.988Z,99477.78
2022-11-21T17:16:45.710Z,99471.84
2022-11-21T17:19:12.510Z,99477.31
2022-11-21T17:21:39.156Z,99481.97
2022-11-21T17:24:05.822Z,99483.13
2022-11-21T17:26:36.622Z,99485.44
2022-11-21T17:29:03.582Z,99489.22
2022-11-21T17:31:30.393Z,99496.34
2022-11-21T17:33:58.578Z,99492.50
2022-11-21T17:36:27.344Z,99497.03
2022-11-21T17:38:54.701Z,99501.13
2022-11-21T17:41:22.938Z,99497.00
2022-11-21T17:43:49.359Z,99489.25
2022-11-21T17:46:17.999Z,99483.94
2022-11-21T17:48:49.968Z,99489.16
2022-11-21T17:51:26.441Z,99483.94
2022-11-21T17:53:53.202Z,99478.84
2022-11-21T17:56:22.357Z,99486.72
2022-11-21T17:58:50.243Z,99484.56
2022-11-21T18:01:20.423Z,99490.50
2022-11-21T18:03:57.352Z,99493.09
2022-11-21T18:06:24.750Z,99491.06
2022-11-21T18:08:51.182Z,99489.72
2022-11-21T18:11:21.334Z,99480.88
2022-11-21T18:13:48.644Z,99475.00
2022-11-21T18:16:20.821Z,99481.72
2022-11-21T18:18:47.726Z,99474.53
2022-11-21T18:21:16.448Z,99473.28
2022-11-21T18:23:43.986Z,99477.13
2022-11-21T18:26:21.039Z,99477.03
2022-11-21T18:29:13.611Z,99473.22
2022-11-21T18:31:42.735Z,99465.91
2022-11-21T18:34:09.147Z,99476.06
2022-11-21T18:36:36.034Z,99461.06
2022-11-21T18:39:08.885Z,99453.81
2022-11-21T18:41:38.790Z,99454.50
2022-11-21T18:44:06.693Z,99457.47
2022-11-21T18:46:35.836Z,99459.16
2022-11-21T18:49:05.867Z,99455.63
2022-11-21T18:51:33.674Z,99456.25
2022-11-21T18:54:06.832Z,99457.41
2022-11-21T18:56:33.661Z,99457.66
2022-11-21T18:59:00.235Z,99457.09
2022-11-21T19:01:28.983Z,99458.91
2022-11-21T19:03:56.537Z,99455.16
2022-11-21T19:06:24.747Z,99447.69
2022-11-21T19:08:53.218Z,99451.34
2022-11-21T19:11:20.779Z,99451.28
2022-11-21T19:13:48.691Z,99441.41
2022-11-21T19:16:17.869Z,99441.75
2022-11-21T19:18:55.022Z,99436.97
2022-11-21T19:21:31.038Z,99435.56
2022-11-21T19:23:57.478Z,99427.97
2022-11-21T19:26:23.955Z,99435.03
2022-11-21T19:28:50.393Z,99436.59
2022-11-21T19:31:18.396Z,99441.44
2022-11-21T19:33:45.462Z,99438.03
2022-11-21T19:36:22.043Z,99436.03
2022-11-21T19:38:51.164Z,99424.34
2022-11-21T19:41:26.671Z,99425.00
2022-11-21T19:44:03.588Z,99414.19
2022-11-21T19:46:33.043Z,99413.84
2022-11-21T19:49:00.597Z,99413.06
2022-11-21T19:51:33.260Z,99407.69
2022-11-21T19:54:01.890Z,99402.69
2022-11-21T19:56:28.433Z,99402.56
2022-11-21T19:58:56.320Z,99394.84
2022-11-21T20:01:24.933Z,99398.34
2022-11-21T20:03:54.037Z,99392.59
2022-11-21T20:06:35.068Z,99384.81
2022-11-21T20:09:05.509Z,99377.38
2022-11-21T20:11:32.833Z,99373.63
2022-11-21T20:13:59.958Z,99370.94
2022-11-21T20:16:27.991Z,99372.00
2022-11-21T20:18:57.013Z,99372.06
2022-11-21T20:21:23.989Z,99360.69
2022-11-21T20:23:50.890Z,99360.00
2022-11-21T20:26:19.013Z,99360.22
2022-11-21T20:28:46.991Z,99358.38
2022-11-21T20:31:14.792Z,99363.41
2022-11-21T20:33:48.937Z,99367.69
2022-11-21T20:36:19.382Z,99371.50
2022-11-21T20:39:04.029Z,99368.63
2022-11-21T20:41:32.730Z,99372.00
2022-11-21T20:46:48.137Z,99388.78
2022-11-21T20:49:14.558Z,99381.56
2022-11-21T20:54:28.108Z,99403.22
2022-11-21T20:56:54.825Z,99410.63
2022-11-21T20:59:21.258Z,99417.13
2022-11-21T21:01:47.753Z,99421.78
2022-11-21T21:04:14.198Z,99420.78
2022-11-21T21:06:40.665Z,99419.31
2022-11-21T21:09:07.217Z,99420.72
2022-11-21T21:14:21.486Z,99420.03
2022-11-21T21:16:48.354Z,99412.13
2022-11-21T21:19:14.972Z,99410.59
2022-11-21T21:21:41.755Z,99413.94
2022-11-21T21:24:10.773Z,99415.00
2022-11-21T21:26:42.719Z,99413.53
2022-11-21T21:29:15.596Z,99421.06
2022-11-21T21:31:48.618Z,99416.28
2022-11-21T21:34:16.834Z,99410.31
2022-11-21T21:36:43.328Z,99406.59
2022-11-21T21:39:09.863Z,99408.84
2022-11-21T21:41:39.750Z,99416.38
2022-11-21T21:44:06.438Z,99415.63
2022-11-21T21:46:33.001Z,99411.28
2022-11-21T21:48:59.483Z,99425.97
2022-11-21T21:51:30.889Z,99419.31
2022-11-21T21:53:58.807Z,99419.22
2022-11-21T21:56:27.456Z,99417.75
2022-11-21T21:58:54.571Z,99404.41
2022-11-21T22:01:23.884Z,99404.63
2022-11-21T22:03:58.609Z,99399.34
2022-11-21T22:06:25.648Z,99399.34
2022-11-21T22:08:52.540Z,99398.00
2022-11-21T22:11:21.631Z,99399.34
2022-11-21T22:13:53.485Z,99385.66
2022-11-21T22:16:20.038Z,99377.56
2022-11-21T22:18:46.602Z,99373.78
2022-11-21T22:21:25.301Z,99381.03
2022-11-21T22:24:17.753Z,99385.59
2022-11-21T22:26:38.354Z,99378.06
2022-11-21T22:29:05.253Z,99378.16
2022-11-21T22:31:32.059Z,99376.94
2022-11-21T22:33:59.054Z,99376.03
2022-11-21T22:36:25.564Z,99381.44
2022-11-21T22:38:55.674Z,99372.53
2022-11-21T22:41:24.512Z,99377.00
2022-11-21T22:43:54.088Z,99372.50
2022-11-21T22:46:20.853Z,99369.97
2022-11-21T22:48:47.819Z,99371.88
2022-11-21T22:51:19.280Z,99369.09
2022-11-21T22:53:47.155Z,99372.19
2022-11-21T22:56:16.315Z,99364.09
2022-11-21T22:58:42.757Z,99373.50
2022-11-21T23:01:12.323Z,99368.03
2022-11-21T23:03:39.112Z,99361.50
2022-11-21T23:06:09.839Z,99361.97
2022-11-21T23:08:37.284Z,99362.19
2022-11-21T23:11:10.046Z,99361.03
2022-11-21T23:13:37.993Z,99368.25
2022-11-21T23:16:05.740Z,99371.03
2022-11-21T23:18:32.975Z,99364.03
2022-11-21T23:20:59.925Z,99358.53
2022-11-21T23:23:26.359Z,99372.78
2022-11-21T23:25:53.049Z,99357.00
2022-11-21T23:28:19.544Z,99354.06
2022-11-21T23:30:47.464Z,99350.47
2022-11-21T23:33:14.507Z,99351.72
2022-11-21T23:35:43.001Z,99354.66
2022-11-21T23:38:09.844Z,99354.81
2022-11-21T23:40:36.494Z,99357.78
2022-11-21T23:43:02.918Z,99349.53
2022-11-21T23:45:29.460Z,99348.34
2022-11-21T23:47:55.898Z,99353.56
2022-11-21T23:50:22.571Z,99355.88
2022-11-21T23:52:49.073Z,99356.59
2022-11-21T23:55:16.764Z,99351.97
2022-11-21T23:57:49.579Z,99363.09
